createdAt,value
2022-11-13T00:01:29.498Z,68.66
2022-11-13T00:04:01.114Z,68.51
2022-11-13T00:06:27.617Z,69.12
2022-11-13T00:08:57.168Z,68.56
2022-11-13T00:11:24.316Z,68.48
2022-11-13T00:13:50.639Z,68.43
2022-11-13T00:16:19.754Z,68.52
2022-11-13T00:18:46.428Z,68.58
2022-11-13T00:21:18.994Z,68.59
2022-11-13T00:23:44.304Z,68.62
2022-11-13T00:26:13.188Z,68.26
2022-11-13T00:28:39.230Z,68.35
2022-11-13T00:31:06.158Z,69.02
2022-11-13T00:33:59.799Z,68.39
2022-11-13T00:36:26.464Z,68.63
2022-11-13T00:38:54.178Z,68.52
2022-11-13T00:41:19.631Z,68.62
2022-11-13T00:43:44.848Z,68.51
2022-11-13T00:46:12.772Z,68.39
2022-11-13T00:48:38.874Z,69.05
2022-11-13T00:51:06.584Z,68.40
2022-11-13T00:53:35.517Z,68.72
2022-11-13T00:56:00.739Z,68.85
2022-11-13T00:58:27.463Z,68.66
2022-11-13T01:00:53.822Z,67.98
2022-11-13T01:03:22.714Z,68.60
2022-11-13T01:05:50.208Z,68.63
2022-11-13T01:08:18.901Z,68.49
2022-11-13T01:10:53.735Z,68.48
2022-11-13T01:13:20.423Z,68.31
2022-11-13T01:15:48.267Z,68.85
2022-11-13T01:18:14.766Z,68.57
2022-11-13T01:20:41.077Z,68.48
2022-11-13T01:23:07.957Z,68.89
2022-11-13T01:25:34.525Z,68.78
2022-11-13T01:28:03.668Z,68.89
2022-11-13T01:30:28.566Z,68.97
2022-11-13T01:32:53.753Z,69.39
2022-11-13T01:35:20.022Z,69.06
2022-11-13T01:37:45.100Z,69.14
2022-11-13T01:40:15.448Z,68.90
2022-11-13T01:42:41.162Z,68.95
2022-11-13T01:45:59.630Z,69.08
2022-11-13T01:48:37.213Z,68.92
2022-11-13T01:51:03.414Z,68.76
2022-11-13T01:53:32.616Z,69.22
2022-11-13T01:55:58.200Z,68.86
2022-11-13T01:58:24.478Z,69.02
2022-11-13T02:00:50.426Z,68.74
2022-11-13T02:03:15.746Z,68.62
2022-11-13T02:05:44.594Z,68.82
2022-11-13T02:08:10.630Z,68.63
2022-11-13T02:10:35.867Z,69.04
2022-11-13T02:13:03.652Z,68.80
2022-11-13T02:15:34.785Z,68.81
2022-11-13T02:18:06.268Z,69.16
2022-11-13T02:20:50.309Z,69.52
2022-11-13T02:23:32.849Z,68.88
2022-11-13T02:26:03.596Z,68.93
2022-11-13T02:28:28.688Z,69.37
2022-11-13T02:30:54.326Z,69.37
2022-11-13T02:33:28.326Z,69.46
2022-11-13T02:35:54.154Z,68.99
2022-11-13T02:38:20.441Z,68.76
2022-11-13T02:40:45.654Z,69.44
2022-11-13T02:43:14.383Z,69.29
2022-11-13T02:45:40.354Z,69.01
2022-11-13T02:48:09.003Z,69.20
2022-11-13T02:50:34.777Z,69.30
2022-11-13T02:53:00.937Z,68.72
2022-11-13T02:55:27.967Z,69.34
2022-11-13T02:57:53.349Z,69.08
2022-11-13T03:00:22.674Z,68.64
2022-11-13T03:02:48.413Z,69.21
2022-11-13T03:05:14.306Z,69.56
2022-11-13T03:07:40.853Z,68.95
2022-11-13T03:10:08.442Z,69.46
2022-11-13T03:12:33.721Z,69.33
2022-11-13T03:15:00.157Z,69.71
2022-11-13T03:17:29.664Z,69.13
2022-11-13T03:19:54.713Z,69.68
2022-11-13T03:22:20.846Z,69.30
2022-11-13T03:24:46.043Z,69.41
2022-11-13T03:27:11.137Z,69.48
2022-11-13T03:29:37.006Z,69.45
2022-11-13T03:32:03.882Z,69.50
2022-11-13T03:34:31.649Z,69.62
2022-11-13T03:36:57.924Z,69.33
2022-11-13T03:39:23.090Z,69.40
2022-11-13T03:41:48.365Z,69.54
2022-11-13T03:44:14.649Z,69.50
2022-11-13T03:46:39.796Z,69.68
2022-11-13T03:49:06.389Z,68.95
2022-11-13T03:51:35.400Z,69.14
2022-11-13T03:54:00.703Z,69.12
2022-11-13T03:56:27.791Z,68.71
2022-11-13T03:58:53.511Z,69.20
2022-11-13T04:01:18.725Z,69.17
2022-11-13T04:03:44.180Z,69.17
2022-11-13T04:06:10.529Z,68.77
2022-11-13T04:08:38.815Z,69.24
2022-11-13T04:11:11.202Z,69.00
2022-11-13T04:13:38.104Z,68.41
2022-11-13T04:16:03.528Z,68.63
2022-11-13T04:18:29.406Z,68.75
2022-11-13T04:20:55.718Z,68.86
2022-11-13T04:23:20.766Z,68.62
2022-11-13T04:25:48.774Z,69.15
2022-11-13T04:28:15.119Z,68.60
2022-11-13T04:30:40.373Z,68.94
2022-11-13T04:33:07.755Z,68.95
2022-11-13T04:35:34.078Z,68.72
2022-11-13T04:37:59.314Z,68.96
2022-11-13T04:40:24.914Z,69.12
2022-11-13T04:42:51.839Z,68.98
2022-11-13T04:45:17.174Z,69.26
2022-11-13T04:47:42.769Z,68.78
2022-11-13T04:50:10.466Z,68.96
2022-11-13T04:52:35.455Z,69.44
2022-11-13T04:55:00.928Z,69.12
2022-11-13T04:57:28.439Z,68.66
2022-11-13T04:59:56.564Z,69.34
2022-11-13T05:02:22.707Z,68.76
2022-11-13T05:04:49.074Z,69.00
2022-11-13T05:07:15.075Z,69.01
2022-11-13T05:09:40.562Z,69.03
2022-11-13T05:12:08.464Z,68.82
2022-11-13T05:14:33.892Z,68.76
2022-11-13T05:17:03.479Z,68.85
2022-11-13T05:19:29.375Z,69.32
2022-11-13T05:21:54.847Z,69.49
2022-11-13T05:24:20.351Z,69.61
2022-11-13T05:26:46.146Z,69.38
2022-11-13T05:29:11.524Z,69.66
2022-11-13T05:31:36.818Z,69.74
2022-11-13T05:34:09.187Z,69.84
2022-11-13T05:36:35.861Z,69.45
2022-11-13T05:39:03.634Z,69.75
2022-11-13T05:41:30.503Z,69.64
2022-11-13T05:43:59.450Z,69.49
2022-11-13T05:46:28.788Z,69.74
2022-11-13T05:48:57.869Z,70.07
2022-11-13T05:51:30.656Z,70.16
2022-11-13T05:53:57.589Z,70.10
2022-11-13T05:56:26.244Z,69.91
2022-11-13T05:58:54.609Z,69.71
2022-11-13T06:01:24.329Z,69.69
2022-11-13T06:03:51.128Z,69.63
2022-11-13T06:06:20.661Z,69.63
2022-11-13T06:08:51.818Z,70.21
2022-11-13T06:11:20.607Z,69.98
2022-11-13T06:13:48.029Z,69.53
2022-11-13T06:16:16.446Z,69.45
2022-11-13T06:18:43.953Z,69.69
2022-11-13T06:21:15.989Z,69.87
2022-11-13T06:23:44.312Z,70.05
2022-11-13T06:26:17.090Z,69.82
2022-11-13T06:28:43.268Z,69.56
2022-11-13T06:31:12.833Z,69.56
2022-11-13T06:33:39.602Z,70.08
2022-11-13T06:36:06.756Z,69.87
2022-11-13T06:38:35.734Z,69.81
2022-11-13T06:41:03.348Z,70.20
2022-11-13T06:43:32.931Z,69.81
2022-11-13T06:46:00.236Z,70.05
2022-11-13T06:48:29.305Z,70.50
2022-11-13T06:50:55.480Z,70.22
2022-11-13T06:53:21.328Z,69.90
2022-11-13T06:55:48.133Z,70.06
2022-11-13T06:58:13.441Z,70.57
2022-11-13T07:00:43.192Z,70.02
2022-11-13T07:03:09.271Z,69.39
2022-11-13T07:05:34.797Z,70.49
2022-11-13T07:08:00.738Z,70.16
2022-11-13T07:10:27.435Z,70.41
2022-11-13T07:12:54.788Z,69.95
2022-11-13T07:15:21.546Z,70.52
2022-11-13T07:17:49.489Z,69.89
2022-11-13T07:20:14.975Z,69.68
2022-11-13T07:22:41.487Z,69.28
2022-11-13T07:25:10.519Z,69.37
2022-11-13T07:27:35.635Z,69.24
2022-11-13T07:30:04.072Z,69.37
2022-11-13T07:32:29.706Z,69.13
2022-11-13T07:34:57.996Z,68.99
2022-11-13T07:37:23.774Z,68.90
2022-11-13T07:39:49.477Z,69.08
2022-11-13T07:42:14.326Z,68.93
2022-11-13T07:44:53.931Z,68.67
2022-11-13T07:47:19.964Z,68.80
2022-11-13T07:49:46.013Z,68.49
2022-11-13T07:52:13.996Z,68.34
2022-11-13T07:54:39.337Z,68.07
2022-11-13T07:57:21.031Z,68.16
2022-11-13T08:00:00.439Z,68.14
2022-11-13T08:02:36.237Z,68.14
2022-11-13T08:05:03.638Z,68.23
2022-11-13T08:07:32.277Z,68.41
2022-11-13T08:09:57.545Z,68.19
2022-11-13T08:12:22.634Z,68.35
2022-11-13T08:14:48.771Z,68.12
2022-11-13T08:17:14.001Z,67.92
2022-11-13T08:19:39.504Z,67.67
2022-11-13T08:22:08.078Z,67.65
2022-11-13T08:24:35.906Z,67.44
2022-11-13T08:27:03.601Z,67.82
2022-11-13T08:29:29.666Z,67.11
2022-11-13T08:31:54.746Z,67.17
2022-11-13T08:34:19.752Z,67.12
2022-11-13T08:36:45.686Z,67.26
2022-11-13T08:39:12.685Z,66.85
2022-11-13T08:41:40.539Z,67.03
2022-11-13T08:44:07.701Z,66.37
2022-11-13T08:46:32.660Z,66.70
2022-11-13T08:49:00.789Z,66.92
2022-11-13T08:51:28.606Z,66.26
2022-11-13T08:53:53.716Z,66.10
2022-11-13T08:56:20.216Z,66.02
2022-11-13T08:58:49.106Z,65.91
2022-11-13T09:01:14.548Z,65.66
2022-11-13T09:03:39.658Z,65.86
2022-11-13T09:06:10.047Z,65.78
2022-11-13T09:08:35.952Z,65.82
2022-11-13T09:11:07.317Z,65.64
2022-11-13T09:13:34.151Z,65.49
2022-11-13T09:16:06.877Z,66.02
2022-11-13T09:18:32.998Z,65.53
2022-11-13T09:21:04.093Z,65.33
2022-11-13T09:23:29.241Z,65.47
2022-11-13T09:25:54.153Z,65.00
2022-11-13T09:28:19.865Z,65.12
2022-11-13T09:30:45.797Z,64.64
2022-11-13T09:33:16.570Z,64.74
2022-11-13T09:35:42.999Z,65.22
2022-11-13T09:38:11.955Z,65.31
2022-11-13T09:40:50.503Z,64.98
2022-11-13T09:43:38.769Z,65.23
2022-11-13T09:46:11.249Z,64.56
2022-11-13T09:48:45.382Z,65.26
2022-11-13T09:51:19.520Z,64.65
2022-11-13T09:53:49.431Z,65.02
2022-11-13T09:56:34.201Z,64.44
2022-11-13T09:59:16.871Z,64.55
2022-11-13T10:02:01.203Z,64.00
2022-11-13T10:04:52.169Z,64.44
2022-11-13T10:07:38.505Z,63.50
2022-11-13T10:10:31.150Z,64.00
2022-11-13T10:13:03.389Z,63.48
2022-11-13T10:15:30.567Z,63.56
2022-11-13T10:18:03.631Z,64.00
2022-11-13T10:20:42.368Z,64.10
2022-11-13T10:23:19.551Z,63.75
2022-11-13T10:25:48.238Z,63.71
2022-11-13T10:28:50.018Z,64.33
2022-11-13T10:31:07.171Z,64.37
2022-11-13T10:33:32.867Z,63.36
2022-11-13T10:36:17.995Z,64.06
2022-11-13T10:38:50.365Z,62.90
2022-11-13T10:41:19.472Z,63.19
2022-11-13T10:44:06.890Z,63.83
2022-11-13T10:46:34.134Z,63.66
2022-11-13T10:49:00.582Z,63.19
2022-11-13T10:51:35.666Z,63.09
2022-11-13T10:54:03.880Z,61.93
2022-11-13T10:56:34.740Z,62.14
2022-11-13T10:59:14.042Z,61.93
2022-11-13T11:01:41.373Z,62.05
2022-11-13T11:04:10.709Z,60.88
2022-11-13T11:07:17.760Z,61.46
2022-11-13T11:09:31.201Z,61.00
2022-11-13T11:12:19.340Z,61.08
2022-11-13T11:15:07.635Z,61.81
2022-11-13T11:17:45.958Z,61.87
2022-11-13T11:20:26.907Z,62.27
2022-11-13T11:23:04.370Z,61.57
2022-11-13T11:25:42.205Z,62.79
2022-11-13T11:28:23.438Z,62.42
2022-11-13T11:30:56.567Z,63.31
2022-11-13T11:33:35.071Z,63.04
2022-11-13T11:36:18.946Z,62.64
2022-11-13T11:38:59.594Z,63.47
2022-11-13T11:41:37.541Z,62.33
2022-11-13T11:44:20.001Z,63.12
2022-11-13T11:46:46.950Z,62.76
2022-11-13T11:49:14.496Z,61.98
2022-11-13T11:51:57.678Z,62.67
2022-11-13T11:54:43.868Z,62.71
2022-11-13T11:57:34.145Z,61.79
2022-11-13T12:00:13.113Z,61.77
2022-11-13T12:03:01.325Z,62.60
2022-11-13T12:05:40.374Z,62.13
2022-11-13T12:08:26.128Z,63.11
2022-11-13T12:11:08.100Z,62.55
2022-11-13T12:13:36.963Z,63.12
2022-11-13T12:16:15.679Z,63.59
2022-11-13T12:19:03.986Z,64.20
2022-11-13T12:21:51.343Z,63.58
2022-11-13T12:25:03.879Z,64.47
2022-11-13T12:27:45.481Z,64.90
2022-11-13T12:30:22.384Z,65.06
2022-11-13T12:33:19.654Z,65.24
2022-11-13T12:35:53.972Z,65.30
2022-11-13T12:38:40.083Z,65.26
2022-11-13T12:41:21.765Z,64.76
2022-11-13T12:44:16.801Z,65.07
2022-11-13T12:46:45.401Z,64.95
2022-11-13T12:49:37.119Z,65.04
2022-11-13T12:52:08.495Z,65.48
2022-11-13T12:54:39.052Z,65.46
2022-11-13T12:57:25.896Z,65.24
2022-11-13T13:00:03.840Z,65.06
2022-11-13T13:02:43.622Z,65.27
2022-11-13T13:05:26.517Z,65.73
2022-11-13T13:08:38.496Z,65.30
2022-11-13T13:11:26.565Z,65.54
2022-11-13T13:14:14.450Z,65.33
2022-11-13T13:16:43.371Z,65.07
2022-11-13T13:19:25.638Z,65.17
2022-11-13T13:21:51.299Z,64.25
2022-11-13T13:24:34.842Z,64.72
2022-11-13T13:27:01.290Z,64.67
2022-11-13T13:29:30.933Z,65.22
2022-11-13T13:32:20.674Z,65.24
2022-11-13T13:35:08.669Z,64.88
2022-11-13T13:37:50.120Z,65.43
2022-11-13T13:40:40.706Z,64.74
2022-11-13T13:43:34.058Z,64.91
2022-11-13T13:46:17.271Z,65.30
2022-11-13T13:48:49.595Z,65.22
2022-11-13T13:51:28.541Z,65.25
2022-11-13T13:53:54.832Z,65.08
2022-11-13T13:56:24.216Z,65.29
2022-11-13T13:58:50.531Z,65.47
2022-11-13T14:01:30.200Z,65.24
2022-11-13T14:04:16.924Z,65.67
2022-11-13T14:06:52.258Z,64.95
2022-11-13T14:09:23.371Z,65.14
2022-11-13T14:11:48.788Z,65.46
2022-11-13T14:14:21.636Z,65.25
2022-11-13T14:16:52.795Z,65.73
2022-11-13T14:19:22.724Z,66.31
2022-11-13T14:21:53.026Z,66.25
2022-11-13T14:24:25.703Z,66.14
2022-11-13T14:26:58.199Z,65.98
2022-11-13T14:29:38.332Z,66.01
2022-11-13T14:32:13.119Z,66.25
2022-11-13T14:34:46.678Z,66.66
2022-11-13T14:37:27.822Z,66.07
2022-11-13T14:39:56.238Z,66.58
2022-11-13T14:42:29.052Z,66.96
2022-11-13T14:44:54.602Z,67.31
2022-11-13T14:47:37.507Z,67.36
2022-11-13T14:50:26.462Z,67.33
2022-11-13T14:53:03.842Z,67.18
2022-11-13T14:55:34.638Z,67.03
2022-11-13T14:58:00.046Z,67.50
2022-11-13T15:00:34.990Z,67.09
2022-11-13T15:03:03.585Z,67.39
2022-11-13T15:05:31.756Z,67.51
2022-11-13T15:07:59.584Z,67.43
2022-11-13T15:10:29.186Z,67.46
2022-11-13T15:12:55.070Z,67.50
2022-11-13T15:15:24.151Z,67.70
2022-11-13T15:17:54.304Z,67.83
2022-11-13T15:20:25.654Z,67.84
2022-11-13T15:22:55.595Z,68.07
2022-11-13T15:25:24.144Z,68.05
2022-11-13T15:27:49.489Z,67.91
2022-11-13T15:30:16.711Z,68.01
2022-11-13T15:32:42.564Z,68.09
2022-11-13T15:35:17.372Z,68.05
2022-11-13T15:37:43.622Z,68.43
2022-11-13T15:40:12.863Z,68.39
2022-11-13T15:42:39.756Z,68.88
2022-11-13T15:45:09.787Z,68.36
2022-11-13T15:47:37.625Z,68.97
2022-11-13T15:50:13.316Z,68.75
2022-11-13T15:52:44.163Z,69.00
2022-11-13T15:55:27.599Z,68.92
2022-11-13T15:57:54.198Z,69.26
2022-11-13T16:00:25.250Z,70.08
2022-11-13T16:02:52.199Z,69.71
2022-11-13T16:05:18.546Z,70.04
2022-11-13T16:07:43.936Z,70.38
2022-11-13T16:10:13.480Z,70.33
2022-11-13T16:12:39.493Z,70.37
2022-11-13T16:15:06.346Z,70.17
2022-11-13T16:17:31.974Z,70.58
2022-11-13T16:19:59.611Z,70.89
2022-11-13T16:22:27.707Z,71.15
2022-11-13T16:24:52.955Z,70.77
2022-11-13T16:27:39.854Z,71.69
2022-11-13T16:30:09.021Z,71.17
2022-11-13T16:32:35.095Z,71.30
2022-11-13T16:35:00.219Z,71.56
2022-11-13T16:37:28.691Z,71.18
2022-11-13T16:39:54.565Z,71.77
2022-11-13T16:42:24.131Z,71.78
2022-11-13T16:44:52.405Z,71.57
2022-11-13T16:47:26.873Z,71.78
2022-11-13T16:49:53.202Z,71.00
2022-11-13T16:52:19.479Z,72.07
2022-11-13T16:54:44.768Z,71.61
2022-11-13T16:57:13.424Z,72.02
2022-11-13T16:59:42.370Z,71.90
2022-11-13T17:02:18.448Z,71.61
2022-11-13T17:04:45.070Z,71.89
2022-11-13T17:07:14.445Z,71.55
2022-11-13T17:09:43.357Z,71.53
2022-11-13T17:12:09.459Z,71.78
2022-11-13T17:14:35.229Z,71.37
2022-11-13T17:17:04.603Z,71.40
2022-11-13T17:19:30.424Z,70.92
2022-11-13T17:21:56.525Z,71.03
2022-11-13T17:24:21.792Z,71.22
2022-11-13T17:26:48.223Z,71.36
2022-11-13T17:29:13.166Z,71.30
2022-11-13T17:31:38.706Z,71.38
2022-11-13T17:34:07.183Z,71.68
2022-11-13T17:36:32.323Z,71.19
2022-11-13T17:38:57.566Z,71.61
2022-11-13T17:41:23.361Z,71.49
2022-11-13T17:43:48.693Z,71.78
2022-11-13T17:46:16.918Z,71.26
2022-11-13T17:48:43.279Z,71.62
2022-11-13T17:51:15.667Z,71.60
2022-11-13T17:53:40.982Z,71.50
2022-11-13T17:56:12.307Z,71.58
2022-11-13T17:58:42.719Z,71.64
2022-11-13T18:01:16.481Z,71.69
2022-11-13T18:03:43.212Z,71.51
2022-11-13T18:06:18.390Z,70.85
2022-11-13T18:08:47.816Z,71.29
2022-11-13T18:11:17.094Z,70.88
2022-11-13T18:13:42.334Z,71.38
2022-11-13T18:16:13.051Z,71.23
2022-11-13T18:18:38.752Z,70.92
2022-11-13T18:21:23.458Z,71.21
2022-11-13T18:23:49.823Z,70.79
2022-11-13T18:26:18.696Z,71.04
2022-11-13T18:28:45.501Z,70.86
2022-11-13T18:31:13.766Z,70.77
2022-11-13T18:33:39.194Z,70.74
2022-11-13T18:36:06.567Z,71.14
2022-11-13T18:38:36.203Z,71.34
2022-11-13T18:41:06.644Z,71.39
2022-11-13T18:43:33.235Z,71.20
2022-11-13T18:46:04.688Z,70.94
2022-11-13T18:48:33.911Z,71.45
2022-11-13T18:51:00.468Z,70.81
2022-11-13T18:53:30.533Z,71.00
2022-11-13T18:56:03.922Z,70.86
2022-11-13T18:58:30.710Z,70.95
2022-11-13T19:00:56.538Z,70.83
2022-11-13T19:03:21.970Z,71.14
2022-11-13T19:05:49.133Z,70.55
2022-11-13T19:08:14.457Z,70.90
2022-11-13T19:10:39.667Z,70.88
2022-11-13T19:13:10.610Z,70.90
2022-11-13T19:15:38.827Z,70.58
2022-11-13T19:18:03.974Z,70.92
2022-11-13T19:20:30.008Z,71.15
2022-11-13T19:22:55.881Z,70.96
2022-11-13T19:25:21.084Z,70.86
2022-11-13T19:27:47.563Z,70.71
2022-11-13T19:30:16.009Z,70.73
2022-11-13T19:32:41.193Z,71.03
2022-11-13T19:35:11.546Z,70.95
2022-11-13T19:37:36.985Z,70.92
2022-11-13T19:40:03.012Z,70.75
2022-11-13T19:42:29.292Z,70.71
2022-11-13T19:44:54.450Z,70.30
2022-11-13T19:47:22.906Z,70.17
2022-11-13T19:49:48.734Z,70.48
2022-11-13T19:52:14.152Z,70.63
2022-11-13T19:54:39.743Z,70.61
2022-11-13T19:57:07.277Z,70.92
2022-11-13T19:59:32.281Z,70.79
2022-11-13T20:01:57.300Z,70.73
2022-11-13T20:04:26.496Z,70.60
2022-11-13T20:06:52.098Z,70.40
2022-11-13T20:09:17.315Z,70.16
2022-11-13T20:11:43.051Z,70.07
2022-11-13T20:14:09.278Z,70.11
2022-11-13T20:16:34.525Z,70.08
2022-11-13T20:19:04.141Z,70.05
2022-11-13T20:21:34.168Z,70.45
2022-11-13T20:24:04.121Z,70.36
2022-11-13T20:26:30.547Z,70.49
2022-11-13T20:28:55.740Z,70.47
2022-11-13T20:31:25.840Z,70.82
2022-11-13T20:33:52.681Z,70.54
2022-11-13T20:36:19.957Z,71.01
2022-11-13T20:38:53.668Z,70.95
2022-11-13T20:41:20.802Z,70.37
2022-11-13T20:43:47.685Z,71.22
2022-11-13T20:46:16.936Z,71.15
2022-11-13T20:48:42.135Z,70.90
2022-11-13T20:51:11.080Z,71.19
2022-11-13T20:53:37.687Z,71.11
2022-11-13T20:56:07.655Z,71.61
2022-11-13T20:58:34.374Z,71.16
2022-11-13T21:01:06.824Z,71.68
2022-11-13T21:03:34.021Z,71.36
2022-11-13T21:06:04.096Z,71.22
2022-11-13T21:08:30.015Z,71.47
2022-11-13T21:10:55.829Z,71.40
2022-11-13T21:13:24.293Z,70.98
2022-11-13T21:15:49.520Z,71.13
2022-11-13T21:18:15.434Z,71.03
2022-11-13T21:20:41.568Z,71.20
2022-11-13T21:23:08.519Z,71.24
2022-11-13T21:25:34.744Z,70.89
2022-11-13T21:28:00.721Z,71.00
2022-11-13T21:30:30.511Z,70.24
2022-11-13T21:32:55.630Z,70.57
2022-11-13T21:35:22.900Z,70.52
2022-11-13T21:37:48.772Z,70.29
2022-11-13T21:40:16.638Z,70.63
2022-11-13T21:42:42.993Z,70.36
2022-11-13T21:45:10.544Z,70.48
2022-11-13T21:47:38.142Z,70.01
2022-11-13T21:50:06.382Z,70.00
2022-11-13T21:52:31.866Z,70.59
2022-11-13T21:54:56.830Z,70.29
2022-11-13T21:57:24.192Z,70.45
2022-11-13T21:59:49.790Z,71.17
2022-11-13T22:02:14.970Z,70.94
2022-11-13T22:04:44.126Z,70.68
2022-11-13T22:07:09.465Z,70.60
2022-11-13T22:09:34.965Z,71.13
2022-11-13T22:12:02.921Z,70.52
2022-11-13T22:14:28.251Z,70.45
2022-11-13T22:16:53.017Z,71.42
2022-11-13T22:19:26.999Z,70.91
2022-11-13T22:21:56.149Z,70.77
2022-11-13T22:24:22.610Z,71.21
2022-11-13T22:26:48.834Z,71.02
2022-11-13T22:29:16.993Z,70.33
2022-11-13T22:31:45.090Z,69.89
2022-11-13T22:34:10.797Z,69.95
2022-11-13T22:36:38.562Z,70.11
2022-11-13T22:39:08.577Z,70.00
2022-11-13T22:41:36.553Z,70.32
2022-11-13T22:44:03.934Z,70.56
2022-11-13T22:46:32.921Z,70.47
2022-11-13T22:49:02.994Z,70.45
2022-11-13T22:51:31.030Z,70.41
2022-11-13T22:54:00.195Z,70.48
2022-11-13T22:56:33.320Z,70.62
2022-11-13T22:59:03.595Z,70.95
2022-11-13T23:01:31.050Z,70.62
2022-11-13T23:03:58.537Z,71.11
2022-11-13T23:06:28.007Z,71.11
2022-11-13T23:08:53.949Z,71.27
2022-11-13T23:11:23.165Z,71.50
2022-11-13T23:13:55.011Z,70.47
2022-11-13T23:16:22.816Z,70.80
2022-11-13T23:18:50.665Z,71.02
2022-11-13T23:21:17.467Z,71.63
2022-11-13T23:23:43.577Z,71.44
2022-11-13T23:26:13.017Z,71.20
2022-11-13T23:28:38.827Z,71.10
2022-11-13T23:31:08.273Z,70.73
2022-11-13T23:33:34.892Z,71.07
2022-11-13T23:35:59.947Z,71.27
2022-11-13T23:38:25.114Z,71.49
2022-11-13T23:40:56.250Z,71.25
2022-11-13T23:43:21.293Z,71.26
2022-11-13T23:45:46.720Z,70.93
2022-11-13T23:48:15.721Z,70.96
2022-11-13T23:50:41.894Z,70.95
2022-11-13T23:53:08.641Z,70.95
2022-11-13T23:55:34.409Z,71.17
2022-11-13T23:58:01.022Z,71.68
